Dashbalbar, Mongolia
Current Conditions -  °F | °C
As of 8:00 AM on Tuesday 23 Dec 2014 (Local Time) from UIAA Reporting Station
Clear Clear  
Wind Chill: -10°   Ceiling: Unl
Heat Index:   Visibility: 6mi
Dew Point: -4°   Wind: 4mph
Humidity: 85%   Direction: NA
Pressure: 30.06"   Gusts: NA
Location:  49.54°N, 114.39°E
Report Text: UIAA 230000Z VRB02MPS 9999 SKC M18/M20 Q1018 NOSIG RMK QFE70529CLRD70
Loading
Personal Weather Stations






























Interactive Weather Map New forecast layout! Learn more

10-Day Weather Forecast

Advertisements
Track Severe Weather on mobile